createdAt,value
2023-02-16T00:01:33.102Z,0.73
2023-02-16T00:03:59.580Z,0.83
2023-02-16T00:06:27.081Z,0.67
2023-02-16T00:08:55.485Z,0.63
2023-02-16T00:11:50.837Z,0.63
2023-02-16T00:14:17.904Z,0.66
2023-02-16T00:16:44.755Z,0.62
2023-02-16T00:19:25.579Z,0.54
2023-02-16T00:21:54.416Z,0.64
2023-02-16T00:24:21.623Z,0.45
2023-02-16T00:26:48.632Z,0.51
2023-02-16T00:29:31.413Z,0.51
2023-02-16T00:31:59.558Z,0.41
2023-02-16T00:34:34.255Z,0.61
2023-02-16T00:37:07.778Z,0.48
2023-02-16T00:39:34.727Z,0.58
2023-02-16T00:42:04.398Z,0.53
2023-02-16T00:44:34.997Z,0.41
2023-02-16T00:47:04.454Z,0.54
2023-02-16T00:49:30.920Z,0.41
2023-02-16T00:51:57.582Z,0.44
2023-02-16T00:54:24.040Z,0.41
2023-02-16T00:56:50.527Z,0.39
2023-02-16T00:59:21.004Z,0.30
2023-02-16T01:01:47.806Z,0.32
2023-02-16T01:04:20.380Z,0.49
2023-02-16T01:07:05.886Z,0.55
2023-02-16T01:09:51.839Z,0.60
2023-02-16T01:12:19.657Z,0.51
2023-02-16T01:14:51.276Z,0.58
2023-02-16T01:17:17.908Z,0.61
2023-02-16T01:19:44.330Z,0.53
2023-02-16T01:22:10.890Z,0.47
2023-02-16T01:24:37.364Z,0.50
2023-02-16T01:27:03.839Z,0.41
2023-02-16T01:29:30.259Z,0.36
2023-02-16T01:31:57.033Z,0.38
2023-02-16T01:34:25.380Z,0.27
2023-02-16T01:36:52.218Z,0.25
2023-02-16T01:39:19.916Z,0.23
2023-02-16T01:41:59.305Z,0.18
2023-02-16T01:44:29.819Z,0.17
2023-02-16T01:47:06.600Z,0.23
2023-02-16T01:49:33.143Z,0.24
2023-02-16T01:52:19.391Z,0.25
2023-02-16T01:54:52.791Z,0.13
2023-02-16T01:57:49.950Z,0.20
2023-02-16T02:00:24.462Z,0.36
2023-02-16T02:02:54.849Z,0.29
2023-02-16T02:05:36.669Z,0.34
2023-02-16T02:08:24.975Z,0.29
2023-02-16T02:10:57.560Z,0.23
2023-02-16T02:13:41.368Z,0.18
2023-02-16T02:16:08.247Z,0.26
2023-02-16T02:18:34.814Z,0.20
2023-02-16T02:21:45.468Z,0.20
2023-02-16T02:24:36.265Z,0.18
2023-02-16T02:27:25.021Z,0.02
2023-02-16T02:30:13.547Z,0.02
2023-02-16T02:33:03.829Z,0.10
2023-02-16T02:35:50.254Z,0.08
2023-02-16T02:38:34.038Z,-0.03
2023-02-16T02:41:12.320Z,0.10
2023-02-16T02:43:46.366Z,-0.05
2023-02-16T02:46:16.872Z,0.10
2023-02-16T02:48:43.331Z,0.06
2023-02-16T02:51:28.860Z,0.09
2023-02-16T02:54:38.801Z,-0.09
2023-02-16T02:57:32.129Z,-0.14
2023-02-16T03:00:27.810Z,-0.02
2023-02-16T03:03:02.445Z,0.07
2023-02-16T03:05:31.247Z,-0.09
2023-02-16T03:08:14.255Z,-0.10
2023-02-16T03:11:07.306Z,-0.15
2023-02-16T03:13:37.146Z,-0.13
2023-02-16T03:16:14.875Z,-0.12
2023-02-16T03:19:01.605Z,-0.14
2023-02-16T03:21:47.358Z,-0.07
2023-02-16T03:24:36.071Z,-0.12
2023-02-16T03:27:21.374Z,-0.24
2023-02-16T03:29:48.755Z,-0.13
2023-02-16T03:32:15.542Z,-0.18
2023-02-16T03:34:42.501Z,-0.29
2023-02-16T03:37:09.240Z,-0.33
2023-02-16T03:39:55.633Z,-0.44
2023-02-16T03:42:22.921Z,-0.38
2023-02-16T03:44:49.328Z,-0.33
2023-02-16T03:47:16.004Z,-0.45
2023-02-16T03:49:42.431Z,-0.52
2023-02-16T03:52:09.112Z,-0.57
2023-02-16T03:54:35.496Z,-0.71
2023-02-16T03:57:01.930Z,-0.83
2023-02-16T03:59:28.363Z,-0.73
2023-02-16T04:01:55.172Z,-0.65
2023-02-16T04:04:21.686Z,-0.66
2023-02-16T04:06:48.186Z,-0.41
2023-02-16T04:09:14.770Z,-0.43
2023-02-16T04:12:00.093Z,-0.50
2023-02-16T04:14:26.687Z,-0.45
2023-02-16T04:16:53.157Z,-0.43
2023-02-16T04:19:19.809Z,-0.57
2023-02-16T04:21:46.217Z,-0.37
2023-02-16T04:24:12.592Z,-0.39
2023-02-16T04:26:39.013Z,-0.56
2023-02-16T04:29:05.391Z,-0.66
2023-02-16T04:31:31.903Z,-0.69
2023-02-16T04:33:58.569Z,-0.51
2023-02-16T04:36:24.988Z,-0.62
2023-02-16T04:38:51.349Z,-0.59
2023-02-16T04:41:17.662Z,-0.72
2023-02-16T04:43:44.085Z,-0.81
2023-02-16T04:46:10.534Z,-0.97
2023-02-16T04:48:37.000Z,-1.05
2023-02-16T04:51:04.922Z,-0.93
2023-02-16T04:53:31.538Z,-0.66
2023-02-16T04:55:58.446Z,-0.74
2023-02-16T04:58:24.898Z,-0.87
2023-02-16T05:00:51.308Z,-0.89
2023-02-16T05:03:17.718Z,-0.90
2023-02-16T05:05:44.113Z,-1.01
2023-02-16T05:08:12.938Z,-1.02
2023-02-16T05:10:39.380Z,-1.11
2023-02-16T05:13:24.438Z,-1.21
2023-02-16T05:15:50.841Z,-1.00
2023-02-16T05:18:17.308Z,-0.80
2023-02-16T05:21:02.814Z,-0.71
2023-02-16T05:23:29.535Z,-0.72
2023-02-16T05:25:55.942Z,-0.77
2023-02-16T05:28:22.380Z,-0.73
2023-02-16T05:30:48.900Z,-0.60
2023-02-16T05:33:15.263Z,-0.74
2023-02-16T05:35:41.677Z,-0.76
2023-02-16T05:38:08.030Z,-0.55
2023-02-16T05:40:34.480Z,-0.63
2023-02-16T05:43:00.868Z,-0.56
2023-02-16T05:45:27.881Z,-0.66
2023-02-16T05:47:54.586Z,-0.52
2023-02-16T05:50:21.309Z,-0.54
2023-02-16T05:52:47.765Z,-0.60
2023-02-16T05:55:14.235Z,-0.52
2023-02-16T05:57:40.653Z,-0.52
2023-02-16T06:00:08.915Z,-0.52
2023-02-16T06:02:35.373Z,-0.45
2023-02-16T06:05:01.830Z,-0.43
2023-02-16T06:07:28.234Z,-0.46
2023-02-16T06:09:54.659Z,-0.40
2023-02-16T06:12:21.246Z,-0.46
2023-02-16T06:14:47.644Z,-0.40
2023-02-16T06:17:14.185Z,-0.49
2023-02-16T06:19:40.640Z,-0.48
2023-02-16T06:22:07.086Z,-0.46
2023-02-16T06:24:36.362Z,-0.50
2023-02-16T06:27:02.771Z,-0.45
2023-02-16T06:29:29.787Z,-0.40
2023-02-16T06:31:56.466Z,-0.46
2023-02-16T06:34:22.943Z,-0.42
2023-02-16T06:36:49.411Z,-0.39
2023-02-16T06:39:15.787Z,-0.28
2023-02-16T06:41:42.170Z,-0.25
2023-02-16T06:44:13.901Z,-0.21
2023-02-16T06:46:46.255Z,-0.06
2023-02-16T06:49:16.745Z,0.07
2023-02-16T06:51:43.427Z,0.17
2023-02-16T06:54:10.114Z,0.26
2023-02-16T06:56:37.964Z,0.53
2023-02-16T06:59:05.281Z,0.85
2023-02-16T07:01:32.411Z,0.80
2023-02-16T07:03:59.089Z,1.02
2023-02-16T07:06:27.920Z,1.02
2023-02-16T07:08:54.436Z,0.92
2023-02-16T07:11:21.664Z,0.77
2023-02-16T07:13:48.085Z,0.89
2023-02-16T07:16:15.733Z,1.05
2023-02-16T07:18:42.441Z,0.96
2023-02-16T07:21:08.829Z,1.38
2023-02-16T07:23:35.342Z,1.43
2023-02-16T07:26:01.855Z,1.33
2023-02-16T07:28:28.277Z,1.31
2023-02-16T07:30:55.374Z,1.20
2023-02-16T07:33:21.806Z,1.30
2023-02-16T07:35:48.255Z,1.34
2023-02-16T07:38:15.455Z,1.49
2023-02-16T07:40:42.146Z,2.02
2023-02-16T07:43:08.667Z,2.34
2023-02-16T07:45:36.014Z,3.34
2023-02-16T07:48:02.644Z,4.06
2023-02-16T07:50:29.073Z,4.15
2023-02-16T07:52:55.494Z,4.99
2023-02-16T07:55:21.891Z,4.35
2023-02-16T07:57:49.464Z,4.32
2023-02-16T08:00:16.627Z,4.33
2023-02-16T08:02:43.154Z,4.27
2023-02-16T08:05:09.717Z,4.78
2023-02-16T08:07:36.405Z,5.16
2023-02-16T08:10:02.896Z,4.47
2023-02-16T08:12:29.406Z,5.17
2023-02-16T08:14:56.111Z,6.08
2023-02-16T08:17:22.553Z,6.73
2023-02-16T08:19:50.418Z,8.11
2023-02-16T08:22:17.865Z,8.65
2023-02-16T08:24:44.282Z,8.29
2023-02-16T08:27:11.175Z,8.90
2023-02-16T08:29:37.802Z,7.20
2023-02-16T08:32:09.195Z,7.49
2023-02-16T08:34:36.913Z,7.67
2023-02-16T08:37:04.643Z,7.58
2023-02-16T08:39:32.869Z,7.44
2023-02-16T08:42:01.089Z,7.02
2023-02-16T08:44:29.170Z,7.93
2023-02-16T08:46:58.722Z,8.55
2023-02-16T08:49:26.051Z,8.97
2023-02-16T08:51:55.397Z,9.70
2023-02-16T08:54:26.877Z,9.71
2023-02-16T08:56:54.379Z,9.64
2023-02-16T08:59:21.935Z,9.32
2023-02-16T09:01:48.776Z,8.26
2023-02-16T09:04:17.627Z,8.67
2023-02-16T09:06:45.480Z,8.62
2023-02-16T09:09:13.286Z,8.73
2023-02-16T09:11:40.298Z,8.91
2023-02-16T09:14:07.327Z,9.55
2023-02-16T09:16:35.388Z,9.51
2023-02-16T09:19:02.406Z,9.46
2023-02-16T09:21:33.281Z,10.20
2023-02-16T09:24:04.108Z,12.52
2023-02-16T09:26:32.783Z,12.54
2023-02-16T09:29:00.574Z,12.82
2023-02-16T09:31:31.008Z,11.60
2023-02-16T09:34:01.884Z,11.01
2023-02-16T09:36:28.649Z,10.55
2023-02-16T09:38:56.280Z,10.26
2023-02-16T09:41:41.061Z,8.86
2023-02-16T09:44:28.590Z,9.53
2023-02-16T09:46:57.410Z,9.81
2023-02-16T09:49:29.292Z,10.10
2023-02-16T09:52:13.769Z,9.55
2023-02-16T09:54:53.076Z,10.15
2023-02-16T09:57:23.786Z,10.33
2023-02-16T10:00:09.895Z,10.60
2023-02-16T10:03:12.172Z,12.28
2023-02-16T10:06:01.376Z,13.40
2023-02-16T10:08:57.355Z,14.80
2023-02-16T10:11:46.626Z,14.52
2023-02-16T10:14:36.929Z,14.71
2023-02-16T10:17:03.484Z,14.02
2023-02-16T10:19:38.630Z,13.94
2023-02-16T10:22:08.343Z,13.46
2023-02-16T10:24:46.437Z,14.62
2023-02-16T10:27:16.327Z,15.18
2023-02-16T10:29:43.018Z,14.03
2023-02-16T10:32:25.010Z,13.08
2023-02-16T10:35:10.847Z,13.34
2023-02-16T10:38:03.456Z,13.43
2023-02-16T10:40:34.827Z,12.54
2023-02-16T10:43:11.686Z,13.67
2023-02-16T10:45:52.957Z,14.46
2023-02-16T10:48:21.690Z,14.52
2023-02-16T10:50:58.634Z,14.25
2023-02-16T10:53:37.314Z,15.06
2023-02-16T10:56:23.771Z,16.33
2023-02-16T10:58:51.640Z,15.89
2023-02-16T11:01:20.611Z,17.42
2023-02-16T11:03:53.129Z,17.37
2023-02-16T11:06:23.043Z,17.95
2023-02-16T11:08:59.292Z,18.07
2023-02-16T11:11:27.833Z,17.43
2023-02-16T11:14:00.182Z,16.86
2023-02-16T11:16:26.992Z,16.40
2023-02-16T11:19:02.003Z,16.77
2023-02-16T11:21:52.005Z,16.97
2023-02-16T11:24:32.011Z,18.56
2023-02-16T11:27:18.434Z,17.34
2023-02-16T11:29:44.963Z,17.51
2023-02-16T11:32:13.000Z,17.64
2023-02-16T11:34:45.160Z,19.29
2023-02-16T11:37:28.352Z,18.64
2023-02-16T11:40:00.620Z,16.77
2023-02-16T11:42:35.658Z,17.66
2023-02-16T11:45:04.569Z,17.50
2023-02-16T11:47:37.495Z,17.03
2023-02-16T11:50:29.219Z,17.40
2023-02-16T11:52:58.748Z,18.79
2023-02-16T11:55:33.710Z,17.82
2023-02-16T11:58:16.574Z,18.42
2023-02-16T12:00:52.806Z,18.47
2023-02-16T12:03:31.353Z,19.44
2023-02-16T12:06:31.498Z,18.73
2023-02-16T12:09:06.992Z,18.25
2023-02-16T12:11:58.048Z,18.75
2023-02-16T12:14:41.428Z,18.04
2023-02-16T12:17:18.537Z,18.48
2023-02-16T12:19:47.730Z,18.51
2023-02-16T12:22:14.380Z,18.32
2023-02-16T12:25:11.332Z,17.85
2023-02-16T12:27:44.012Z,17.01
2023-02-16T12:30:34.004Z,16.92
2023-02-16T12:33:10.500Z,16.60
2023-02-16T12:35:53.486Z,16.44
2023-02-16T12:38:27.252Z,16.34
2023-02-16T12:41:18.770Z,16.37
2023-02-16T12:43:48.925Z,17.72
2023-02-16T12:46:23.639Z,17.17
2023-02-16T12:49:02.565Z,17.07
2023-02-16T12:51:35.676Z,16.36
2023-02-16T12:54:10.544Z,17.46
2023-02-16T12:56:42.426Z,18.17
2023-02-16T12:59:33.596Z,17.85
2023-02-16T13:02:01.036Z,17.87
2023-02-16T13:04:38.893Z,18.06
2023-02-16T13:07:28.729Z,18.43
2023-02-16T13:10:00.282Z,17.61
2023-02-16T13:12:34.985Z,17.01
2023-02-16T13:15:14.801Z,16.87
2023-02-16T13:17:56.162Z,17.20
2023-02-16T13:20:23.597Z,17.63
2023-02-16T13:23:04.912Z,17.70
2023-02-16T13:26:01.839Z,17.93
2023-02-16T13:28:56.242Z,17.26
2023-02-16T13:31:47.382Z,16.47
2023-02-16T13:34:53.486Z,16.46
2023-02-16T13:37:29.646Z,16.31
2023-02-16T13:40:23.753Z,16.89
2023-02-16T13:43:04.446Z,17.20
2023-02-16T13:45:32.693Z,17.35
2023-02-16T13:48:00.122Z,16.93
2023-02-16T13:50:33.282Z,16.36
2023-02-16T13:53:20.308Z,16.08
2023-02-16T13:55:47.249Z,16.32
2023-02-16T13:58:13.586Z,16.53
2023-02-16T14:00:42.913Z,16.77
2023-02-16T14:03:37.541Z,16.81
2023-02-16T14:06:34.262Z,16.91
2023-02-16T14:09:13.229Z,16.71
2023-02-16T14:11:52.921Z,17.23
2023-02-16T14:14:34.544Z,17.06
2023-02-16T14:17:17.644Z,15.92
2023-02-16T14:19:56.384Z,16.03
2023-02-16T14:22:37.459Z,15.54
2023-02-16T14:25:30.875Z,15.11
2023-02-16T14:28:16.323Z,13.74
2023-02-16T14:30:42.729Z,13.54
2023-02-16T14:33:12.185Z,12.92
2023-02-16T14:35:41.121Z,12.67
2023-02-16T14:38:17.291Z,12.71
2023-02-16T14:40:57.827Z,12.47
2023-02-16T14:43:25.953Z,12.16
2023-02-16T14:46:06.992Z,12.12
2023-02-16T14:49:06.575Z,12.25
2023-02-16T14:51:51.331Z,12.41
2023-02-16T14:54:41.350Z,12.32
2023-02-16T14:57:14.178Z,12.67
2023-02-16T14:59:48.408Z,12.31
2023-02-16T15:02:35.688Z,12.37
2023-02-16T15:05:20.160Z,12.13
2023-02-16T15:07:50.631Z,12.02
2023-02-16T15:10:22.405Z,11.80
2023-02-16T15:12:51.914Z,11.71
2023-02-16T15:15:23.690Z,11.26
2023-02-16T15:17:51.285Z,11.09
2023-02-16T15:20:32.823Z,10.78
2023-02-16T15:23:02.202Z,10.47
2023-02-16T15:25:33.856Z,10.06
2023-02-16T15:28:04.360Z,9.75
2023-02-16T15:30:33.454Z,9.49
2023-02-16T15:33:06.585Z,9.32
2023-02-16T15:35:36.911Z,9.14
2023-02-16T15:38:05.634Z,9.11
2023-02-16T15:40:33.223Z,8.91
2023-02-16T15:43:23.089Z,8.88
2023-02-16T15:45:54.750Z,8.76
2023-02-16T15:48:23.126Z,8.58
2023-02-16T15:50:51.137Z,8.34
2023-02-16T15:53:24.332Z,8.09
2023-02-16T15:55:51.509Z,8.06
2023-02-16T15:58:17.992Z,7.90
2023-02-16T16:00:45.174Z,7.80
2023-02-16T16:03:17.559Z,7.66
2023-02-16T16:05:56.231Z,7.43
2023-02-16T16:08:26.824Z,7.31
2023-02-16T16:10:53.652Z,7.23
2023-02-16T16:13:26.483Z,7.15
2023-02-16T16:15:59.738Z,7.08
2023-02-16T16:18:44.872Z,6.94
2023-02-16T16:21:34.222Z,6.81
2023-02-16T16:24:03.671Z,6.63
2023-02-16T16:26:33.720Z,6.60
2023-02-16T16:29:00.757Z,6.63
2023-02-16T16:31:28.076Z,6.43
2023-02-16T16:34:07.083Z,6.26
2023-02-16T16:36:54.095Z,6.29
2023-02-16T16:39:26.934Z,6.29
2023-02-16T16:41:56.362Z,6.15
2023-02-16T16:44:38.419Z,6.01
2023-02-16T16:47:37.193Z,5.89
2023-02-16T16:50:31.443Z,5.92
2023-02-16T16:52:58.150Z,5.86
2023-02-16T16:55:28.117Z,5.77
2023-02-16T16:58:01.543Z,5.70
2023-02-16T17:00:31.342Z,5.62
2023-02-16T17:02:58.553Z,5.41
2023-02-16T17:05:25.255Z,5.49
2023-02-16T17:07:51.944Z,5.50
2023-02-16T17:10:20.941Z,5.38
2023-02-16T17:12:50.779Z,5.46
2023-02-16T17:15:37.919Z,5.26
2023-02-16T17:18:05.914Z,5.32
2023-02-16T17:20:32.617Z,5.22
2023-02-16T17:23:04.672Z,5.24
2023-02-16T17:25:32.988Z,5.31
2023-02-16T17:27:59.832Z,5.29
2023-02-16T17:30:26.310Z,5.19
2023-02-16T17:32:52.834Z,5.29
2023-02-16T17:35:19.238Z,5.21
2023-02-16T17:37:46.109Z,5.27
2023-02-16T17:40:19.285Z,5.19
2023-02-16T17:42:47.117Z,5.21
2023-02-16T17:45:19.375Z,5.25
2023-02-16T17:47:47.182Z,5.23
2023-02-16T17:50:15.177Z,5.28
2023-02-16T17:52:42.501Z,5.17
2023-02-16T17:55:09.656Z,5.30
2023-02-16T17:57:36.210Z,5.22
2023-02-16T18:00:08.145Z,5.04
2023-02-16T18:02:34.908Z,5.01
2023-02-16T18:05:01.363Z,4.91
2023-02-16T18:07:27.828Z,4.82
2023-02-16T18:09:54.379Z,4.78
2023-02-16T18:12:20.941Z,4.87
2023-02-16T18:14:47.378Z,4.90
2023-02-16T18:17:13.855Z,4.85
2023-02-16T18:19:40.323Z,4.73
2023-02-16T18:22:06.795Z,4.70
2023-02-16T18:24:33.191Z,4.70
2023-02-16T18:26:59.574Z,4.76
2023-02-16T18:29:25.960Z,4.73
2023-02-16T18:31:52.763Z,4.72
2023-02-16T18:34:19.179Z,4.63
2023-02-16T18:36:45.573Z,4.66
2023-02-16T18:39:12.021Z,4.64
2023-02-16T18:41:38.685Z,4.52
2023-02-16T18:44:05.554Z,4.50
2023-02-16T18:46:32.359Z,4.50
2023-02-16T18:48:58.950Z,4.51
2023-02-16T18:51:28.976Z,4.39
2023-02-16T18:53:57.052Z,4.42
2023-02-16T18:56:23.854Z,4.53
2023-02-16T18:58:50.256Z,4.47
2023-02-16T19:01:28.773Z,4.54
2023-02-16T19:03:55.398Z,4.50
2023-02-16T19:06:22.262Z,4.57
2023-02-16T19:08:49.279Z,4.48
2023-02-16T19:11:15.631Z,4.36
2023-02-16T19:13:42.014Z,4.34
2023-02-16T19:16:08.773Z,4.39
2023-02-16T19:18:35.369Z,4.35
2023-02-16T19:21:09.770Z,4.34
2023-02-16T19:23:37.795Z,4.30
2023-02-16T19:26:09.589Z,4.38
2023-02-16T19:28:36.039Z,4.34
2023-02-16T19:31:04.294Z,4.48
2023-02-16T19:33:31.480Z,4.66
2023-02-16T19:36:06.513Z,4.64
2023-02-16T19:38:33.252Z,4.74
2023-02-16T19:41:00.096Z,4.65
2023-02-16T19:43:27.196Z,4.66
2023-02-16T19:45:53.781Z,4.63
2023-02-16T19:48:20.249Z,4.52
2023-02-16T19:50:47.453Z,4.52
2023-02-16T19:53:14.007Z,4.61
2023-02-16T19:55:42.131Z,4.56
2023-02-16T19:58:10.053Z,4.63
2023-02-16T20:00:37.898Z,4.51
2023-02-16T20:03:04.668Z,4.62
2023-02-16T20:05:32.763Z,4.61
2023-02-16T20:07:59.470Z,4.64
2023-02-16T20:10:26.256Z,4.65
2023-02-16T20:12:52.714Z,4.71
2023-02-16T20:15:19.467Z,4.61
2023-02-16T20:17:46.274Z,4.71
2023-02-16T20:20:24.432Z,4.82
2023-02-16T20:22:51.117Z,4.95
2023-02-16T20:25:17.817Z,5.10
2023-02-16T20:27:44.420Z,5.14
2023-02-16T20:30:24.195Z,5.13
2023-02-16T20:32:50.860Z,5.16
2023-02-16T20:35:17.539Z,5.32
2023-02-16T20:37:44.370Z,5.43
2023-02-16T20:40:11.394Z,5.55
2023-02-16T20:42:37.959Z,5.65
2023-02-16T20:45:05.880Z,5.88
2023-02-16T20:47:32.445Z,6.08
2023-02-16T20:49:59.579Z,6.33
2023-02-16T20:52:26.644Z,6.41
2023-02-16T20:54:54.433Z,6.42
2023-02-16T20:57:26.720Z,6.57
2023-02-16T20:59:54.678Z,6.70
2023-02-16T21:02:21.681Z,6.84
2023-02-16T21:04:48.498Z,6.88
2023-02-16T21:07:15.186Z,6.95
2023-02-16T21:09:42.829Z,7.08
2023-02-16T21:12:11.882Z,7.07
2023-02-16T21:14:38.347Z,7.02
2023-02-16T21:17:05.073Z,7.12
2023-02-16T21:19:31.531Z,7.12
2023-02-16T21:21:59.499Z,7.26
2023-02-16T21:24:35.692Z,7.19
2023-02-16T21:27:02.392Z,7.31
2023-02-16T21:29:28.826Z,7.36
2023-02-16T21:31:55.292Z,7.40
2023-02-16T21:34:21.740Z,7.23
2023-02-16T21:36:48.239Z,7.29
2023-02-16T21:39:14.699Z,7.34
2023-02-16T21:41:41.124Z,7.34
2023-02-16T21:44:15.566Z,7.36
2023-02-16T21:46:44.248Z,7.26
2023-02-16T21:49:19.090Z,7.28
2023-02-16T21:51:47.325Z,7.21
2023-02-16T21:54:16.575Z,7.26
2023-02-16T21:56:51.186Z,7.33
2023-02-16T21:59:19.343Z,7.43
2023-02-16T22:01:51.346Z,7.47
2023-02-16T22:04:21.017Z,7.59
2023-02-16T22:06:49.035Z,7.56
2023-02-16T22:09:19.954Z,7.60
2023-02-16T22:11:47.251Z,7.65
2023-02-16T22:14:14.252Z,7.64
2023-02-16T22:16:41.070Z,7.68
2023-02-16T22:19:10.847Z,7.56
2023-02-16T22:21:39.873Z,7.63
2023-02-16T22:24:07.242Z,7.54
2023-02-16T22:26:35.172Z,7.45
2023-02-16T22:29:03.039Z,7.42
2023-02-16T22:31:29.605Z,7.37
2023-02-16T22:33:58.197Z,7.36
2023-02-16T22:36:24.731Z,7.39
2023-02-16T22:38:51.796Z,7.34
2023-02-16T22:41:18.498Z,7.40
2023-02-16T22:43:44.919Z,7.39
2023-02-16T22:46:16.283Z,7.52
2023-02-16T22:48:43.500Z,7.36
2023-02-16T22:51:12.347Z,7.42
2023-02-16T22:53:38.823Z,7.56
2023-02-16T22:56:07.313Z,7.56
2023-02-16T22:58:35.986Z,7.73
2023-02-16T23:01:02.922Z,7.73
2023-02-16T23:03:30.081Z,7.75
2023-02-16T23:05:56.558Z,7.45
2023-02-16T23:08:23.758Z,7.54
2023-02-16T23:11:02.485Z,7.45
2023-02-16T23:13:33.223Z,7.38
2023-02-16T23:16:12.947Z,7.34
2023-02-16T23:18:39.491Z,7.33
2023-02-16T23:21:17.490Z,7.33
2023-02-16T23:23:44.879Z,7.28
2023-02-16T23:26:11.402Z,7.26
2023-02-16T23:28:39.659Z,7.31
2023-02-16T23:31:06.801Z,7.35
2023-02-16T23:33:33.891Z,7.49
2023-02-16T23:36:00.489Z,7.42
2023-02-16T23:38:27.583Z,7.37
2023-02-16T23:41:02.870Z,7.29
2023-02-16T23:43:29.597Z,7.34
2023-02-16T23:45:56.718Z,7.29
2023-02-16T23:48:23.432Z,7.31
2023-02-16T23:50:50.749Z,7.32
2023-02-16T23:53:17.960Z,7.30
2023-02-16T23:55:44.362Z,7.31
2023-02-16T23:58:11.149Z,7.47
